Time;durP1;ratioP1;P1;durP2;ratioP2;P2;SDS_P1;SDS_P2;PMS_P1;PMS_P2;Temp;Humidity;BMP_temperature;BMP_pressure;BME280_temperature;BME280_humidity;BME280_pressure;Samples;Min_cycle;Max_cycle;Signal;HPM_P1;HPM_P2
2021/10/15 00:01:04;;;;;;;5.60;3.70;;;;;;;5.89;68.08;97073.20;115385;1199;27727;-88
2021/10/15 00:03:32;;;;;;;5.60;3.10;;;;;;;5.89;68.18;97079.63;115497;1199;27953;-88
2021/10/15 00:06:00;;;;;;;7.50;3.90;;;;;;;5.90;68.25;97074.98;115423;1198;46815;-88
2021/10/15 00:08:28;;;;;;;8.60;4.10;;;;;;;5.90;68.20;97070.67;115169;1200;27448;-88
2021/10/15 00:10:58;;;;;;;5.80;3.70;;;;;;;5.92;68.19;97068.94;115437;1199;30600;-89
2021/10/15 00:13:26;;;;;;;7.30;3.60;;;;;;;5.91;68.28;97074.98;115374;1199;34601;-88
2021/10/15 00:15:54;;;;;;;6.30;3.80;;;;;;;5.92;68.13;97071.95;115400;1192;33294;-88
2021/10/15 00:18:22;;;;;;;6.20;3.40;;;;;;;5.94;68.08;97066.92;115397;1199;28659;-88
2021/10/15 00:20:50;;;;;;;5.60;3.10;;;;;;;5.96;68.07;97066.20;115429;1199;47999;-89
2021/10/15 00:23:18;;;;;;;5.30;3.20;;;;;;;5.98;68.18;97076.40;115492;1198;36037;-88
2021/10/15 00:25:46;;;;;;;5.70;3.70;;;;;;;6.00;68.38;97073.31;115459;1198;27216;-88
2021/10/15 00:28:14;;;;;;;6.30;3.30;;;;;;;6.02;68.35;97067.56;115387;1199;41747;-89
2021/10/15 00:30:42;;;;;;;6.20;3.50;;;;;;;6.05;68.46;97069.71;115454;1198;34229;-88
2021/10/15 00:33:10;;;;;;;3.40;2.70;;;;;;;6.06;68.58;97060.96;115480;1198;38228;-88
2021/10/15 00:35:39;;;;;;;6.20;3.60;;;;;;;6.09;68.70;97055.64;115450;1199;28249;-89
2021/10/15 00:38:07;;;;;;;5.80;3.30;;;;;;;6.13;68.88;97048.44;115553;1198;27512;-89
2021/10/15 00:40:36;;;;;;;4.60;2.90;;;;;;;6.15;68.81;97054.83;115365;1199;40542;-87
2021/10/15 00:43:04;;;;;;;8.80;3.70;;;;;;;6.13;68.85;97047.33;115389;1199;27041;-88
2021/10/15 00:45:32;;;;;;;4.60;2.90;;;;;;;6.12;68.89;97043.27;115406;1184;34443;-89
2021/10/15 00:48:00;;;;;;;5.60;2.90;;;;;;;6.11;69.01;97041.28;115423;1193;27997;-89
2021/10/15 00:50:28;;;;;;;7.80;3.60;;;;;;;6.09;68.94;97040.00;115454;1198;31902;-89
2021/10/15 00:52:56;;;;;;;6.00;3.40;;;;;;;6.08;69.02;97035.73;115453;1198;29029;-89
2021/10/15 00:55:24;;;;;;;5.70;3.40;;;;;;;6.07;69.02;97031.23;115469;1198;29333;-88
2021/10/15 00:57:52;;;;;;;5.10;3.00;;;;;;;6.04;69.16;97036.21;115455;1192;29422;-89
2021/10/15 01:00:20;;;;;;;5.90;3.30;;;;;;;6.01;69.28;97041.50;115431;1192;29292;-88
2021/10/15 01:02:48;;;;;;;8.20;3.90;;;;;;;5.99;69.32;97034.20;115504;1198;37724;-87
2021/10/15 01:05:16;;;;;;;6.50;3.20;;;;;;;5.98;69.37;97030.45;115483;1198;29933;-87
2021/10/15 01:07:45;;;;;;;6.00;3.40;;;;;;;5.96;69.39;97037.27;115423;1199;29364;-87
2021/10/15 01:10:13;;;;;;;5.20;3.50;;;;;;;5.93;69.51;97029.27;115510;1198;25106;-88
2021/10/15 01:12:42;;;;;;;6.20;3.70;;;;;;;5.92;69.64;97023.95;115407;1198;26071;-89
2021/10/15 01:15:10;;;;;;;9.40;3.70;;;;;;;5.92;69.65;97025.37;115486;1198;27902;-89
2021/10/15 01:17:38;;;;;;;5.60;3.90;;;;;;;5.92;69.76;97024.84;115470;1199;29728;-89
2021/10/15 01:20:08;;;;;;;4.90;3.00;;;;;;;5.93;69.82;97022.23;115529;1199;30532;-88
2021/10/15 01:22:36;;;;;;;5.80;3.00;;;;;;;5.95;69.78;97026.67;115477;1199;29039;-88
2021/10/15 01:25:06;;;;;;;5.50;3.30;;;;;;;5.98;69.81;97021.82;115478;1198;31109;-88
2021/10/15 01:27:34;;;;;;;5.30;3.20;;;;;;;5.99;69.68;97013.73;115493;1192;29225;-87
2021/10/15 01:30:03;;;;;;;6.90;3.70;;;;;;;6.02;69.71;97020.25;115433;1199;28248;-89
2021/10/15 01:32:31;;;;;;;6.10;3.20;;;;;;;6.05;69.53;97006.39;115442;1198;28884;-88
2021/10/15 01:34:58;;;;;;;4.60;2.90;;;;;;;6.07;69.68;97004.81;115428;1199;30562;-87
2021/10/15 01:37:26;;;;;;;7.00;3.10;;;;;;;6.08;69.65;96997.02;115402;1199;27283;-88
2021/10/15 01:39:54;;;;;;;6.40;3.40;;;;;;;6.08;69.68;97009.98;115424;1199;37566;-87
2021/10/15 01:45:09;;;;;;;6.10;2.70;;;;;;;6.08;69.87;97002.93;115362;1200;29571;-88
2021/10/15 01:47:37;;;;;;;5.90;3.40;;;;;;;6.07;69.82;96999.88;115446;1199;28834;-88
2021/10/15 01:50:07;;;;;;;5.10;3.10;;;;;;;6.07;69.87;96999.23;115472;1199;25691;-88
2021/10/15 01:52:35;;;;;;;6.80;3.10;;;;;;;6.08;69.99;96997.71;115405;1199;28073;-89
2021/10/15 01:55:03;;;;;;;4.40;2.50;;;;;;;6.08;69.98;96997.15;115365;1199;27729;-88
2021/10/15 01:57:31;;;;;;;5.00;2.80;;;;;;;6.08;70.02;96999.19;115398;1199;25665;-88
2021/10/15 01:59:59;;;;;;;5.60;3.00;;;;;;;6.09;70.02;96999.05;115342;1200;26130;-88
2021/10/15 02:02:27;;;;;;;6.30;3.30;;;;;;;6.10;70.17;97002.80;115371;1199;28124;-87
2021/10/15 02:04:55;;;;;;;5.70;3.10;;;;;;;6.11;70.21;96991.66;115449;1199;26213;-88
2021/10/15 02:07:23;;;;;;;4.90;3.20;;;;;;;6.11;70.28;97003.13;115396;1199;25258;-88
2021/10/15 02:09:52;;;;;;;8.40;3.90;;;;;;;6.10;70.25;97003.01;115377;1199;29392;-89
2021/10/15 02:12:19;;;;;;;6.50;3.00;;;;;;;6.09;70.28;97006.58;115393;1199;26943;-88
2021/10/15 02:14:48;;;;;;;5.80;3.30;;;;;;;6.09;70.41;97008.48;115426;1199;26786;-87
2021/10/15 02:17:16;;;;;;;5.30;2.80;;;;;;;6.09;70.36;97002.05;115283;1193;26541;-88
2021/10/15 02:19:44;;;;;;;5.70;3.30;;;;;;;6.09;70.24;97000.52;115071;1200;27645;-88
2021/10/15 02:22:12;;;;;;;4.00;2.70;;;;;;;6.07;70.46;96999.02;115354;1184;29006;-88
2021/10/15 02:24:40;;;;;;;6.40;2.70;;;;;;;6.08;70.53;97001.23;115472;1198;26920;-88
2021/10/15 02:27:08;;;;;;;4.30;2.90;;;;;;;6.08;70.64;96997.66;115492;1192;26703;-88
2021/10/15 02:29:36;;;;;;;5.90;3.30;;;;;;;6.07;70.51;96997.98;115473;1199;36259;-88
2021/10/15 02:32:04;;;;;;;5.30;3.40;;;;;;;6.07;70.65;96995.76;115353;1199;26675;-88
2021/10/15 02:34:33;;;;;;;4.70;3.00;;;;;;;6.05;70.70;96992.66;115494;1198;29434;-88
2021/10/15 02:37:01;;;;;;;4.40;2.90;;;;;;;6.05;70.71;96997.39;115462;1199;28033;-88
2021/10/15 02:39:29;;;;;;;4.30;2.70;;;;;;;6.05;70.75;96997.08;115459;1192;25837;-88
2021/10/15 02:41:57;;;;;;;6.50;3.30;;;;;;;6.04;70.67;96999.65;115397;1193;28170;-88
2021/10/15 02:44:25;;;;;;;5.80;3.10;;;;;;;6.03;70.82;97001.30;115443;1192;27177;-88
2021/10/15 02:46:53;;;;;;;3.70;2.60;;;;;;;6.02;71.02;96998.77;115411;1198;28684;-89
2021/10/15 02:49:21;;;;;;;5.80;2.60;;;;;;;6.02;70.93;96998.52;115397;1186;28355;-88
2021/10/15 02:51:49;;;;;;;5.30;2.90;;;;;;;6.03;70.98;97000.89;115401;1198;27272;-88
2021/10/15 02:54:17;;;;;;;5.20;3.40;;;;;;;6.05;71.19;97003.95;115441;1198;25801;-89
2021/10/15 02:56:46;;;;;;;7.50;3.50;;;;;;;6.06;71.01;97004.36;115412;1199;27143;-89
2021/10/15 02:59:14;;;;;;;4.40;2.80;;;;;;;6.04;70.91;97008.31;115414;1199;31609;-88
2021/10/15 03:01:41;;;;;;;4.30;3.20;;;;;;;6.04;71.09;97009.31;115484;1198;28667;-88
2021/10/15 03:04:09;;;;;;;3.80;2.50;;;;;;;6.04;71.32;97006.89;115545;1198;27333;-88
2021/10/15 03:06:37;;;;;;;5.90;3.20;;;;;;;6.04;71.32;97003.73;115422;1199;30843;-88
2021/10/15 03:09:05;;;;;;;4.60;2.90;;;;;;;6.05;71.49;97006.95;115452;1198;26797;-88
2021/10/15 03:11:34;;;;;;;4.60;2.80;;;;;;;6.03;71.32;97008.57;115437;1199;26482;-88
2021/10/15 03:14:02;;;;;;;6.20;3.20;;;;;;;6.02;71.31;97013.29;115465;1198;25994;-89
2021/10/15 03:16:30;;;;;;;4.40;2.70;;;;;;;6.02;71.36;97006.87;115438;1198;27880;-88
2021/10/15 03:18:58;;;;;;;4.30;2.60;;;;;;;5.99;71.14;97007.55;115423;1199;26256;-89
2021/10/15 03:21:25;;;;;;;4.60;2.80;;;;;;;5.96;71.40;97003.85;115474;1199;27081;-89
2021/10/15 03:23:53;;;;;;;3.10;2.10;;;;;;;5.92;71.37;96998.16;115440;1199;26239;-89
2021/10/15 03:26:22;;;;;;;4.40;2.80;;;;;;;5.92;71.65;96999.63;115385;1199;26126;-89
2021/10/15 03:28:50;;;;;;;4.00;2.60;;;;;;;5.89;71.91;96996.02;115459;1198;24078;-88
2021/10/15 03:31:18;;;;;;;5.50;2.50;;;;;;;5.84;72.01;96991.09;115515;1198;25729;-88
2021/10/15 03:33:46;;;;;;;4.50;2.80;;;;;;;5.80;72.05;96991.18;115469;1192;27880;-86
2021/10/15 03:36:14;;;;;;;5.40;2.50;;;;;;;5.78;72.45;96991.27;115507;1192;27809;-89
2021/10/15 03:38:43;;;;;;;4.30;2.80;;;;;;;5.77;72.23;96990.91;115361;1199;27506;-87
2021/10/15 03:41:11;;;;;;;4.80;2.50;;;;;;;5.80;72.31;96989.23;115308;1200;29188;-88
2021/10/15 03:43:39;;;;;;;5.70;2.60;;;;;;;5.78;72.53;96987.73;115560;1199;30313;-88
2021/10/15 03:46:07;;;;;;;5.60;2.90;;;;;;;5.80;72.51;96989.23;115596;1198;26501;-88
2021/10/15 03:48:36;;;;;;;6.20;2.90;;;;;;;5.80;72.40;96988.34;115433;1199;26933;-89
2021/10/15 03:51:04;;;;;;;3.50;2.50;;;;;;;5.80;72.36;96988.56;115502;1199;27287;-88
2021/10/15 03:53:32;;;;;;;3.40;2.00;;;;;;;5.82;72.27;96988.64;115502;1198;28534;-88
2021/10/15 03:56:00;;;;;;;4.40;2.80;;;;;;;5.84;72.38;96991.83;115481;1198;27345;-88
2021/10/15 03:58:28;;;;;;;5.20;2.80;;;;;;;5.88;72.37;96989.99;115472;1199;29897;-89
2021/10/15 04:00:56;;;;;;;6.30;3.10;;;;;;;5.91;72.51;96988.34;115531;1198;28595;-88
2021/10/15 04:03:24;;;;;;;4.20;2.60;;;;;;;5.93;72.53;96987.91;115486;1198;27835;-89
2021/10/15 04:05:56;;;;;;;6.20;3.00;;;;;;;5.93;72.38;96989.91;115464;1199;27604;-89
2021/10/15 04:08:24;;;;;;;4.00;2.90;;;;;;;5.96;72.42;96991.48;115500;1198;29306;-88
2021/10/15 04:10:53;;;;;;;5.30;2.70;;;;;;;6.01;72.28;96982.96;115446;1198;27004;-89
2021/10/15 04:13:21;;;;;;;6.10;2.50;;;;;;;6.03;72.34;96983.10;115508;1199;26423;-87
2021/10/15 04:15:49;;;;;;;4.30;2.20;;;;;;;6.03;72.40;96987.92;115390;1199;44936;-88
2021/10/15 04:18:17;;;;;;;5.20;3.10;;;;;;;6.04;72.60;96986.20;115429;1192;28769;-88
2021/10/15 04:20:45;;;;;;;5.20;3.10;;;;;;;6.06;72.58;96989.70;115523;1198;27373;-88
2021/10/15 04:23:14;;;;;;;5.70;3.10;;;;;;;6.08;72.33;96986.61;115484;1199;28316;-88
2021/10/15 04:25:42;;;;;;;5.10;2.90;;;;;;;6.09;72.49;96988.89;115473;1193;26746;-88
2021/10/15 04:28:10;;;;;;;5.20;3.20;;;;;;;6.09;72.45;96984.47;115549;1199;34815;-89
2021/10/15 04:30:38;;;;;;;4.80;2.80;;;;;;;6.11;72.58;97000.07;115474;1199;27725;-89
2021/10/15 04:33:06;;;;;;;5.70;3.00;;;;;;;6.11;72.62;96978.30;115513;1199;26731;-89
2021/10/15 04:35:35;;;;;;;5.90;3.10;;;;;;;6.11;72.65;96974.49;115386;1199;28001;-87
2021/10/15 04:38:03;;;;;;;8.20;3.50;;;;;;;6.09;72.69;96968.77;115417;1199;38728;-89
2021/10/15 04:40:31;;;;;;;4.10;2.80;;;;;;;6.07;72.91;96971.70;115432;1199;26221;-87
2021/10/15 04:42:59;;;;;;;6.30;2.70;;;;;;;6.07;72.67;96968.44;115431;1199;26844;-87
2021/10/15 04:45:28;;;;;;;3.90;2.80;;;;;;;6.07;72.81;96967.49;115415;1199;25910;-88
2021/10/15 04:47:56;;;;;;;5.00;3.00;;;;;;;6.07;72.94;96969.07;115369;1199;27148;-88
2021/10/15 04:50:24;;;;;;;4.70;3.20;;;;;;;6.08;73.15;96964.55;115267;1199;26198;-89
2021/10/15 04:52:52;;;;;;;4.50;3.00;;;;;;;6.08;73.11;96959.45;115424;1199;27921;-88
2021/10/15 04:55:20;;;;;;;5.50;3.10;;;;;;;6.06;73.20;96963.84;115364;1199;25819;-87
2021/10/15 04:57:49;;;;;;;4.80;2.60;;;;;;;6.08;73.26;96961.66;115366;1199;29004;-89
2021/10/15 05:00:19;;;;;;;8.70;3.60;;;;;;;6.09;73.28;96956.46;115395;1199;26800;-88
2021/10/15 05:02:49;;;;;;;4.20;2.80;;;;;;;6.10;73.30;96958.32;115406;1199;27799;-88
2021/10/15 05:05:20;;;;;;;5.10;3.00;;;;;;;6.12;73.44;96964.82;115386;1199;30814;-88
2021/10/15 05:07:48;;;;;;;6.70;3.00;;;;;;;6.14;73.60;96967.48;115404;1199;26860;-88
2021/10/15 05:10:16;;;;;;;6.20;3.40;;;;;;;6.15;73.37;96962.74;115376;1199;27514;-87
2021/10/15 05:12:44;;;;;;;6.20;3.20;;;;;;;6.15;73.44;96970.34;115391;1199;26457;-88
2021/10/15 05:15:13;;;;;;;5.00;2.90;;;;;;;6.19;73.43;96977.61;115344;1199;28790;-88
2021/10/15 05:17:41;;;;;;;6.70;3.70;;;;;;;6.23;73.59;96979.38;115477;1195;27052;-89
2021/10/15 05:20:12;;;;;;;5.40;3.20;;;;;;;6.28;73.56;96977.74;115455;1199;27890;-89
2021/10/15 05:22:41;;;;;;;3.70;2.90;;;;;;;6.33;73.40;96978.08;115528;1193;27172;-88
2021/10/15 05:25:11;;;;;;;5.90;3.00;;;;;;;6.42;73.44;96974.00;115605;1193;28672;-89
2021/10/15 05:27:39;;;;;;;6.10;3.10;;;;;;;6.86;73.36;96976.05;115505;1197;52422;-89
2021/10/15 05:30:10;;;;;;;5.60;3.30;;;;;;;7.52;72.89;96976.98;115434;1199;26791;-88
2021/10/15 05:32:39;;;;;;;4.70;2.70;;;;;;;8.10;71.56;96967.28;115459;1193;36927;-90
2021/10/15 05:35:08;;;;;;;5.00;2.80;;;;;;;8.55;70.38;96964.69;115484;1198;29788;-90
2021/10/15 05:37:36;;;;;;;4.60;3.10;;;;;;;8.92;69.37;96968.15;115495;1199;28906;-89
2021/10/15 05:40:06;;;;;;;5.90;3.20;;;;;;;9.33;68.90;96967.28;115384;1193;34051;-89
2021/10/15 05:42:34;;;;;;;4.80;3.00;;;;;;;9.70;68.11;96967.09;115385;1199;29515;-89
2021/10/15 05:45:02;;;;;;;4.60;2.60;;;;;;;9.60;66.86;96970.66;115384;1199;31305;-89
2021/10/15 05:47:31;;;;;;;4.30;2.70;;;;;;;9.11;67.03;96970.12;115334;1199;31835;-88
2021/10/15 05:50:01;;;;;;;4.90;2.80;;;;;;;8.67;67.23;96967.50;115474;1199;28371;-89
2021/10/15 05:52:33;;;;;;;4.60;2.80;;;;;;;8.29;67.68;96958.81;115410;1193;27343;-89
2021/10/15 05:55:07;;;;;;;3.80;2.50;;;;;;;7.99;68.29;96966.67;115380;1199;29884;-88
2021/10/15 06:00:22;;;;;;;5.10;3.00;;;;;;;7.70;69.26;96961.30;115462;1198;31556;-89
2021/10/15 06:02:51;;;;;;;3.10;2.30;;;;;;;7.64;69.43;96966.65;115551;1198;29762;-88
2021/10/15 06:16:46;;;;;;;9.70;2.90;;;;;;;7.30;70.83;96955.91;115382;1199;27574;-87
2021/10/15 06:19:17;;;;;;;3.20;2.10;;;;;;;7.43;71.18;96952.50;115369;1199;29168;-88
2021/10/15 06:21:46;;;;;;;5.50;2.50;;;;;;;8.22;70.75;96949.48;115506;1184;28132;-86
2021/10/15 06:24:15;;;;;;;5.50;3.00;;;;;;;8.51;69.55;96941.95;115531;1192;26864;-88
2021/10/15 06:26:44;;;;;;;4.20;2.70;;;;;;;9.00;69.47;96941.63;115374;1199;37192;-88
2021/10/15 06:29:12;;;;;;;3.50;2.30;;;;;;;10.04;67.90;96943.04;115530;1198;26301;-88
2021/10/15 06:31:40;;;;;;;4.10;2.30;;;;;;;10.80;66.23;96941.95;115443;1199;40483;-87
2021/10/15 06:34:08;;;;;;;4.00;2.10;;;;;;;11.34;64.15;96940.42;115456;1199;26331;-88
2021/10/15 06:36:36;;;;;;;3.40;2.30;;;;;;;11.87;63.02;96934.19;115396;1199;27155;-88
2021/10/15 06:39:04;;;;;;;4.50;2.70;;;;;;;12.34;61.83;96937.02;115355;1193;34562;-88
2021/10/15 06:41:33;;;;;;;3.90;2.40;;;;;;;13.20;62.11;96934.44;115535;1198;27004;-88
2021/10/15 06:44:01;;;;;;;4.20;2.50;;;;;;;13.95;58.97;96921.05;115489;1198;27508;-88
2021/10/15 06:46:29;;;;;;;4.80;2.60;;;;;;;14.29;58.62;96922.45;115402;1199;28721;-88
2021/10/15 06:48:57;;;;;;;2.80;2.00;;;;;;;14.95;57.40;96919.55;115407;1199;25816;-88
2021/10/15 06:51:25;;;;;;;4.40;2.30;;;;;;;15.28;55.49;96915.02;115366;1199;26705;-88
2021/10/15 06:53:53;;;;;;;3.00;2.10;;;;;;;15.41;54.90;96916.88;115437;1199;27524;-88
2021/10/15 06:56:21;;;;;;;3.10;2.00;;;;;;;15.63;54.55;96920.04;115577;1198;27486;-89
2021/10/15 06:58:49;;;;;;;3.50;2.00;;;;;;;16.02;54.26;96920.49;115532;1198;41220;-87
2021/10/15 07:01:18;;;;;;;2.90;2.40;;;;;;;16.22;52.90;96916.13;115415;1198;27772;-88
2021/10/15 07:03:46;;;;;;;4.20;2.40;;;;;;;16.33;52.35;96905.75;115419;1193;35637;-88
2021/10/15 07:06:14;;;;;;;5.20;2.60;;;;;;;16.48;52.10;96906.02;115380;1198;26092;-88
2021/10/15 07:08:43;;;;;;;4.70;2.20;;;;;;;16.57;51.27;96905.65;115413;1192;28194;-88
2021/10/15 07:11:11;;;;;;;3.90;2.00;;;;;;;16.57;51.13;96907.41;115485;1199;26137;-88
2021/10/15 07:13:39;;;;;;;2.60;2.10;;;;;;;16.55;50.22;96905.27;115430;1184;25439;-89
2021/10/15 07:16:10;;;;;;;3.10;1.90;;;;;;;16.48;50.15;96904.08;115528;1199;25776;-88
2021/10/15 07:18:38;;;;;;;4.00;1.90;;;;;;;16.55;50.44;96902.86;115461;1199;26036;-88
2021/10/15 07:21:07;;;;;;;3.90;2.00;;;;;;;16.56;49.75;96904.71;115383;1199;27619;-87
2021/10/15 07:23:36;;;;;;;3.50;2.30;;;;;;;16.27;49.66;96906.98;115533;1198;31145;-88
2021/10/15 07:26:05;;;;;;;4.60;1.70;;;;;;;16.07;49.46;96901.48;115534;1198;29783;-87
2021/10/15 07:28:33;;;;;;;3.60;1.80;;;;;;;15.81;49.95;96908.12;115383;1199;25756;-87
2021/10/15 07:31:01;;;;;;;3.90;2.00;;;;;;;15.74;50.38;96897.43;115594;1198;28997;-87
2021/10/15 07:33:30;;;;;;;3.20;1.80;;;;;;;15.61;50.37;96898.22;115531;1198;29501;-89
2021/10/15 07:35:58;;;;;;;3.90;1.80;;;;;;;15.37;50.61;96898.10;115564;1199;27032;-88
2021/10/15 07:38:26;;;;;;;2.50;1.50;;;;;;;15.27;50.73;96899.45;115581;1198;25923;-87
2021/10/15 07:40:54;;;;;;;2.70;1.70;;;;;;;14.97;50.62;96898.81;115512;1198;26048;-88
2021/10/15 07:43:22;;;;;;;2.20;1.30;;;;;;;14.76;51.38;96895.02;115539;1193;26529;-87
2021/10/15 07:45:51;;;;;;;4.60;2.10;;;;;;;14.74;51.21;96890.90;115547;1198;32724;-88
2021/10/15 07:48:19;;;;;;;5.10;1.90;;;;;;;14.56;51.61;96896.22;115537;1199;27015;-88
2021/10/15 07:50:48;;;;;;;2.90;1.80;;;;;;;14.51;51.57;96892.79;115338;1199;30280;-88
2021/10/15 07:53:16;;;;;;;3.20;1.70;;;;;;;14.43;52.13;96896.82;115351;1199;27092;-88
2021/10/15 07:55:44;;;;;;;3.00;1.80;;;;;;;14.35;51.82;96892.48;115354;1199;26729;-88
2021/10/15 07:58:12;;;;;;;2.50;1.70;;;;;;;14.07;52.17;96901.61;115366;1193;27970;-87
2021/10/15 08:00:41;;;;;;;3.20;1.60;;;;;;;13.98;52.28;96894.45;115457;1197;25651;-89
2021/10/15 08:03:09;;;;;;;1.60;1.30;;;;;;;13.79;52.98;96893.82;115476;1199;28904;-87
2021/10/15 08:05:37;;;;;;;3.10;1.40;;;;;;;13.65;53.11;96893.29;115488;1198;28515;-88
2021/10/15 08:08:05;;;;;;;2.40;1.70;;;;;;;13.60;53.51;96895.59;115570;1197;28682;-88
2021/10/15 08:10:33;;;;;;;1.80;1.30;;;;;;;13.48;53.70;96892.75;115552;1198;28232;-88
2021/10/15 08:13:02;;;;;;;3.20;1.90;;;;;;;13.47;54.01;96896.06;115451;1193;28052;-89
2021/10/15 08:15:30;;;;;;;3.20;1.80;;;;;;;13.31;53.83;96898.48;115492;1198;26817;-88
2021/10/15 08:17:59;;;;;;;3.10;1.80;;;;;;;13.10;54.29;96897.41;115538;1194;35392;-87
2021/10/15 08:20:28;;;;;;;3.60;2.00;;;;;;;12.95;54.71;96891.91;115526;1199;31134;-88
2021/10/15 08:22:56;;;;;;;3.10;2.00;;;;;;;12.86;55.09;96890.65;115521;1199;29156;-88
2021/10/15 08:25:24;;;;;;;3.50;2.10;;;;;;;12.76;55.31;96886.42;115498;1199;28209;-87
2021/10/15 08:27:52;;;;;;;2.10;1.60;;;;;;;12.70;55.64;96882.45;115423;1199;27294;-88
2021/10/15 08:30:20;;;;;;;3.00;1.80;;;;;;;12.64;56.02;96880.38;115363;1199;28872;-88
2021/10/15 08:32:48;;;;;;;4.30;2.50;;;;;;;12.63;56.13;96872.35;115367;1199;33091;-88
2021/10/15 08:35:16;;;;;;;1.80;1.60;;;;;;;12.53;56.22;96876.46;115449;1199;26510;-88
2021/10/15 08:37:44;;;;;;;4.30;1.90;;;;;;;12.46;56.40;96876.02;115427;1199;26407;-87
2021/10/15 08:40:13;;;;;;;3.60;2.00;;;;;;;12.41;56.66;96882.09;115376;1192;28117;-88
2021/10/15 08:42:50;;;;;;;4.20;2.10;;;;;;;12.35;57.05;96877.50;115464;1199;27402;-88
2021/10/15 08:45:21;;;;;;;2.80;1.80;;;;;;;12.30;57.23;96878.27;115529;1198;27698;-87
2021/10/15 08:47:49;;;;;;;3.40;2.10;;;;;;;12.23;57.32;96877.86;115577;1198;33683;-88
2021/10/15 08:50:18;;;;;;;3.40;2.00;;;;;;;12.11;57.70;96877.02;115474;1199;29847;-87
2021/10/15 08:52:46;;;;;;;3.30;2.20;;;;;;;12.06;57.78;96881.63;115524;1199;26316;-87
2021/10/15 08:55:14;;;;;;;2.90;2.00;;;;;;;11.95;57.94;96880.79;115501;1199;27045;-86
2021/10/15 08:57:48;;;;;;;2.50;1.80;;;;;;;11.80;58.17;96878.98;115413;1199;26824;-87
2021/10/15 09:00:25;;;;;;;4.10;2.40;;;;;;;11.74;58.71;96883.76;115515;1199;24528;-87
2021/10/15 09:03:13;;;;;;;3.80;1.90;;;;;;;11.75;58.92;96880.72;115428;1199;27881;-86
2021/10/15 09:05:51;;;;;;;6.00;1.80;;;;;;;11.78;59.10;96884.63;115537;1199;26142;-87
2021/10/15 09:08:21;;;;;;;4.10;2.20;;;;;;;11.76;59.31;96879.55;115295;1199;27019;-87
2021/10/15 09:10:49;;;;;;;3.30;2.00;;;;;;;11.69;59.54;96873.60;115397;1199;27682;-87
2021/10/15 09:13:20;;;;;;;3.70;1.80;;;;;;;11.66;59.93;96876.53;115377;1194;27674;-87
2021/10/15 09:15:59;;;;;;;3.30;2.10;;;;;;;11.74;60.31;96874.08;115512;1198;26124;-87
2021/10/15 09:18:30;;;;;;;3.70;1.90;;;;;;;11.77;60.08;96876.17;115538;1198;26756;-87
2021/10/15 09:21:13;;;;;;;3.20;1.90;;;;;;;11.78;60.34;96873.25;115592;1192;24957;-86
2021/10/15 09:23:47;;;;;;;3.70;2.10;;;;;;;11.81;60.17;96875.91;115256;1191;25646;-86
2021/10/15 09:26:17;;;;;;;3.00;2.00;;;;;;;11.79;60.19;96874.70;115574;1193;27818;-86
2021/10/15 09:28:47;;;;;;;3.60;2.10;;;;;;;11.81;60.22;96870.38;115440;1184;26014;-87
2021/10/15 09:31:15;;;;;;;2.50;2.00;;;;;;;11.82;60.29;96860.92;115500;1193;28273;-86
2021/10/15 09:33:54;;;;;;;5.10;2.00;;;;;;;11.90;60.38;96868.92;115579;1198;25567;-86
2021/10/15 09:36:24;;;;;;;2.20;1.70;;;;;;;11.95;60.37;96867.09;115513;1199;27063;-86
2021/10/15 09:38:53;;;;;;;2.80;2.10;;;;;;;12.00;60.39;96860.98;115454;1193;27300;-87
2021/10/15 09:41:39;;;;;;;3.60;2.00;;;;;;;12.08;60.49;96854.73;115408;1194;26712;-86
2021/10/15 09:44:31;;;;;;;4.10;1.80;;;;;;;12.13;60.30;96854.48;115563;1198;28523;-86
2021/10/15 09:47:18;;;;;;;4.10;1.90;;;;;;;12.19;60.57;96853.81;115544;1198;26414;-86
2021/10/15 09:49:55;;;;;;;2.60;1.50;;;;;;;12.31;60.53;96857.73;115395;1199;27916;-86
2021/10/15 09:52:27;;;;;;;3.10;1.70;;;;;;;12.34;59.93;96857.31;115414;1193;28085;-87
2021/10/15 09:55:03;;;;;;;2.10;1.50;;;;;;;12.31;59.90;96852.88;115412;1198;30809;-87
2021/10/15 09:57:35;;;;;;;3.50;1.90;;;;;;;12.33;60.15;96851.86;115330;1199;26782;-88
2021/10/15 10:00:08;;;;;;;2.70;1.50;;;;;;;12.37;60.22;96847.55;115439;1193;24464;-87
2021/10/15 10:02:37;;;;;;;2.40;1.30;;;;;;;12.47;60.32;96849.78;115467;1199;26039;-86
2021/10/15 10:05:12;;;;;;;2.40;1.30;;;;;;;12.65;60.01;96851.06;115606;1198;27016;-87
2021/10/15 10:07:41;;;;;;;2.70;1.40;;;;;;;12.90;59.83;96851.38;115562;1199;29400;-87
2021/10/15 10:10:13;;;;;;;4.20;1.80;;;;;;;13.09;59.08;96847.55;115667;1198;26107;-87
2021/10/15 10:12:42;;;;;;;2.70;1.30;;;;;;;13.21;59.07;96846.44;115583;1199;26162;-87
2021/10/15 10:15:17;;;;;;;1.90;1.20;;;;;;;13.33;59.00;96840.98;115571;1195;37781;-87
2021/10/15 10:17:50;;;;;;;2.50;1.40;;;;;;;13.40;58.54;96839.52;115872;1199;25548;-87
2021/10/15 10:20:25;;;;;;;2.30;1.40;;;;;;;13.50;58.90;96840.30;115848;1199;23507;-87
2021/10/15 10:23:02;;;;;;;3.30;1.10;;;;;;;13.55;58.36;96840.38;115612;1198;27280;-87
2021/10/15 10:25:32;;;;;;;2.40;1.50;;;;;;;13.51;58.70;96831.44;115600;1198;26833;-86
2021/10/15 10:28:16;;;;;;;2.60;1.50;;;;;;;13.50;58.06;96822.83;115548;1198;27981;-88
2021/10/15 10:30:46;;;;;;;2.20;1.30;;;;;;;13.51;58.07;96826.97;115327;1199;27436;-87
2021/10/15 10:33:14;;;;;;;1.30;1.00;;;;;;;13.62;58.33;96825.67;115468;1199;29609;-87
2021/10/15 10:35:43;;;;;;;2.50;1.40;;;;;;;13.72;58.01;96822.05;115429;1199;31881;-86
2021/10/15 10:38:38;;;;;;;2.40;1.60;;;;;;;13.72;57.93;96821.94;115442;1199;27109;-87
2021/10/15 10:41:22;;;;;;;1.80;1.10;;;;;;;13.71;57.79;96811.30;115409;1199;25244;-86
2021/10/15 10:44:13;;;;;;;3.90;1.60;;;;;;;13.70;57.67;96810.37;115424;1198;28750;-86
2021/10/15 10:47:12;;;;;;;1.70;1.30;;;;;;;13.52;57.95;96807.98;115376;1199;27104;-88
2021/10/15 10:50:05;;;;;;;2.00;1.40;;;;;;;13.60;58.07;96804.44;115495;1199;26823;-87
2021/10/15 10:52:36;;;;;;;1.40;1.10;;;;;;;13.67;57.86;96801.24;115473;1198;27788;-86
2021/10/15 10:55:06;;;;;;;2.50;1.40;;;;;;;13.70;57.80;96797.67;115533;1199;26287;-87
2021/10/15 10:57:45;;;;;;;1.80;0.80;;;;;;;13.67;57.61;96800.40;115348;1198;35197;-87
2021/10/15 11:00:22;;;;;;;1.90;1.20;;;;;;;13.60;57.55;96796.73;115584;1199;28212;-87
2021/10/15 11:02:54;;;;;;;2.00;1.20;;;;;;;13.56;57.63;96793.54;115646;1199;28733;-87
2021/10/15 11:05:37;;;;;;;2.70;1.30;;;;;;;13.46;57.61;96792.65;115551;1199;28245;-87
2021/10/15 11:08:32;;;;;;;2.80;1.30;;;;;;;13.40;57.95;96789.02;115550;1193;29295;-86
2021/10/15 11:11:39;;;;;;;1.70;1.10;;;;;;;13.49;58.45;96777.46;115294;1184;28065;-86
2021/10/15 11:14:07;;;;;;;1.80;1.10;;;;;;;13.44;57.97;96777.13;115586;1198;27736;-87
2021/10/15 11:16:36;;;;;;;2.20;1.40;;;;;;;13.40;58.40;96775.02;115416;1192;27344;-86
2021/10/15 11:19:05;;;;;;;1.10;1.00;;;;;;;13.48;58.52;96768.16;115504;1192;25274;-87
2021/10/15 11:21:33;;;;;;;2.10;1.00;;;;;;;13.52;58.15;96760.52;115491;1199;25925;-87
2021/10/15 11:24:15;;;;;;;2.90;1.20;;;;;;;13.47;58.08;96758.91;115245;1199;28408;-86
2021/10/15 11:26:43;;;;;;;2.00;1.60;;;;;;;13.41;57.88;96755.92;115277;1199;27333;-86
2021/10/15 11:29:12;;;;;;;4.20;1.30;;;;;;;13.41;58.27;96750.77;115495;1193;27136;-86
2021/10/15 11:31:40;;;;;;;2.50;1.50;;;;;;;13.46;58.14;96746.39;115488;1198;26806;-86
2021/10/15 11:34:10;;;;;;;1.70;1.40;;;;;;;13.50;58.10;96750.48;115536;1199;26442;-87
2021/10/15 11:36:39;;;;;;;2.90;1.40;;;;;;;13.57;58.53;96743.35;115617;1198;24663;-86
2021/10/15 11:39:08;;;;;;;2.30;1.60;;;;;;;13.70;58.23;96739.02;115598;1198;28203;-87
2021/10/15 11:41:50;;;;;;;2.30;1.50;;;;;;;13.85;58.32;96737.77;115417;1199;24238;-87
2021/10/15 11:44:32;;;;;;;1.10;0.90;;;;;;;13.98;57.50;96733.95;115592;1198;25678;-86
2021/10/15 11:47:00;;;;;;;1.30;1.00;;;;;;;14.11;57.23;96731.23;115567;1198;27215;-86
2021/10/15 11:49:36;;;;;;;3.20;1.40;;;;;;;14.14;56.41;96730.20;115562;1198;26549;-86
2021/10/15 11:52:06;;;;;;;3.20;1.50;;;;;;;14.09;56.77;96726.23;115577;1198;35458;-87
2021/10/15 11:54:34;;;;;;;1.50;1.10;;;;;;;14.11;56.58;96722.48;115498;1198;25807;-86
2021/10/15 11:57:02;;;;;;;2.10;1.60;;;;;;;14.10;56.31;96715.33;115568;1199;27455;-86
2021/10/15 11:59:30;;;;;;;1.90;1.20;;;;;;;14.11;56.30;96715.72;115407;1192;27649;-85